Hovedside
METAR-TAF:

METAR-TAF

Lufthavner :

Ringkøbing-Skjern, Danmark

Stauning lufthavn

breddegrad: 56-00N, lengdegrad: 008-21E, høyde over havet: 5 m

Gjeldene værobservasjon

Denne rapporten ble laget for 8 timer og 43 minutter siden, klokken 13:50 UTC
Vind 5 kt fra Nord, skiftende mellom Nord-nordvest og Nordøst
Temperatur 21°C
Luftfuktighet 64%
Trykk 1010 hPa
Sikt 10 km eller mer
Spredte skyer i en høyde av 3000 ft
Brutte skyer i en høyde av 20000 ft

METAR: EKVJ 241350Z 01005KT 330V040 9999 SCT030 BKN200 21/14 Q1010

Tid: 00:33 (22:33 UTC)

Varsel

Denne rapporten ble laget for 13 timer og 37 minutter siden, klokken 08:56 UTC
Varsel gyldig fra 24. klokken 09 UTC til 24. klokken 15 UTC
Vind 6 kt fra Øst-nordøst
Sikt 10 km eller mer
Spredte skyer i en høyde av 2000 ft

TAF: EKVJ 240856Z 2409/2415 06006KT 9999 SCT020

Værobservasjoner og værvarsel for over 4000 flyplasser (METAR- og TAF-rapporter).

Tilgjengelige stasjoner er representert av de røde og gule prikkene på kartet.

Hold musepekeren over prikken for å se navnet på stasjonen.

Klikk så for å se værobservasjoner og -varsler.

For å forandre kartet kan du klikke på den grønne knappen med svart kryss for å zoome inn, på den grønne knappen med strek for å zoome ut, eller på de grønne pilene for å se tilstøtende kart.


METAR-TAF: